createdAt,value
2023-05-16T00:00:27.341Z,40.79
2023-05-16T00:01:30.409Z,40.78
2023-05-16T00:02:33.408Z,40.77
2023-05-16T00:03:38.474Z,40.83
2023-05-16T00:04:41.673Z,40.92
2023-05-16T00:06:55.796Z,40.82
2023-05-16T00:07:58.238Z,40.75
2023-05-16T00:09:01.084Z,40.69
2023-05-16T00:10:04.825Z,40.63
2023-05-16T00:11:07.564Z,40.58
2023-05-16T00:12:10.508Z,40.55
2023-05-16T00:13:15.167Z,40.57
2023-05-16T00:14:19.170Z,40.64
2023-05-16T00:15:22.769Z,40.70
2023-05-16T00:16:26.141Z,40.73
2023-05-16T00:17:29.478Z,40.81
2023-05-16T00:18:32.283Z,40.84
2023-05-16T00:19:35.544Z,40.89
2023-05-16T00:20:38.331Z,40.98
2023-05-16T00:22:55.039Z,41.19
2023-05-16T00:25:10.282Z,41.34
2023-05-16T00:26:13.056Z,41.32
2023-05-16T00:27:17.833Z,41.32
2023-05-16T00:28:20.885Z,41.36
2023-05-16T00:29:26.561Z,41.38
2023-05-16T00:30:29.340Z,41.42
2023-05-16T00:31:32.381Z,41.44
2023-05-16T00:32:36.166Z,41.48
2023-05-16T00:33:38.986Z,41.47
2023-05-16T00:34:41.986Z,41.50
2023-05-16T00:35:45.085Z,41.55
2023-05-16T00:36:50.566Z,41.56
2023-05-16T00:37:53.611Z,41.55
2023-05-16T00:38:57.647Z,41.57
2023-05-16T00:40:02.091Z,41.56
2023-05-16T00:41:05.860Z,41.62
2023-05-16T00:42:09.747Z,41.58
2023-05-16T00:43:13.651Z,41.60
2023-05-16T00:44:16.270Z,41.66
2023-05-16T00:45:20.740Z,41.66
2023-05-16T00:46:24.126Z,41.69
2023-05-16T00:48:40.717Z,41.79
2023-05-16T00:49:44.312Z,41.81
2023-05-16T00:50:46.994Z,41.83
2023-05-16T00:51:49.612Z,41.84
2023-05-16T00:52:54.368Z,41.85
2023-05-16T00:53:57.506Z,41.85
2023-05-16T00:55:04.220Z,41.85
2023-05-16T00:56:08.422Z,41.88
2023-05-16T00:57:12.556Z,41.88
2023-05-16T00:58:18.164Z,41.88
2023-05-16T00:59:21.049Z,41.89
2023-05-16T01:00:24.223Z,41.91
2023-05-16T01:01:29.142Z,41.91
2023-05-16T01:02:32.340Z,41.94
2023-05-16T01:03:35.947Z,41.90
2023-05-16T01:04:39.703Z,41.89
2023-05-16T01:05:42.214Z,41.89
2023-05-16T01:06:45.839Z,41.95
2023-05-16T01:07:48.993Z,41.95
2023-05-16T01:08:51.789Z,41.98
2023-05-16T01:09:55.904Z,42.00
2023-05-16T01:11:02.650Z,42.00
2023-05-16T01:12:29.161Z,42.00
2023-05-16T01:14:08.117Z,42.00
2023-05-16T01:15:13.229Z,41.96
2023-05-16T01:16:20.656Z,41.96
2023-05-16T01:17:30.920Z,41.96
2023-05-16T01:18:42.919Z,41.97
2023-05-16T01:21:12.884Z,42.06
2023-05-16T01:22:20.316Z,42.02
2023-05-16T01:25:14.791Z,42.14
2023-05-16T01:26:29.507Z,42.15
2023-05-16T01:27:32.485Z,42.10
2023-05-16T01:28:36.295Z,42.14
2023-05-16T01:29:39.293Z,42.17
2023-05-16T01:30:42.908Z,42.26
2023-05-16T01:31:46.144Z,42.26
2023-05-16T01:32:49.876Z,42.26
2023-05-16T01:33:52.831Z,42.24
2023-05-16T01:34:55.745Z,42.25
2023-05-16T01:36:04.989Z,42.19
2023-05-16T01:37:18.308Z,42.19
2023-05-16T01:39:50.085Z,42.32
2023-05-16T01:40:59.739Z,42.34
2023-05-16T01:42:08.220Z,42.33
2023-05-16T01:43:16.101Z,42.31
2023-05-16T01:44:22.580Z,42.30
2023-05-16T01:45:29.239Z,42.27
2023-05-16T01:46:36.136Z,42.27
2023-05-16T01:47:40.670Z,42.25
2023-05-16T01:49:07.215Z,42.25
2023-05-16T01:50:14.914Z,42.28
2023-05-16T01:51:18.091Z,42.25
2023-05-16T01:52:30.374Z,42.24
2023-05-16T01:53:36.955Z,42.25
2023-05-16T01:54:42.181Z,42.23
2023-05-16T01:55:51.080Z,42.21
2023-05-16T01:56:54.745Z,42.21
2023-05-16T01:58:00.500Z,42.17
2023-05-16T01:59:04.539Z,42.17
2023-05-16T02:00:09.713Z,42.15
2023-05-16T02:01:15.805Z,42.14
2023-05-16T02:02:21.188Z,42.17
2023-05-16T02:03:24.009Z,42.17
2023-05-16T02:04:27.106Z,42.20
2023-05-16T02:05:30.312Z,42.22
2023-05-16T02:06:33.814Z,42.18
2023-05-16T02:07:36.794Z,42.18
2023-05-16T02:08:39.338Z,42.18
2023-05-16T02:09:41.956Z,42.16
2023-05-16T02:10:45.598Z,42.18
2023-05-16T02:11:49.250Z,42.21
2023-05-16T02:12:52.279Z,42.18
2023-05-16T02:13:55.465Z,42.20
2023-05-16T02:14:58.037Z,42.18
2023-05-16T02:16:01.210Z,42.19
2023-05-16T02:17:04.039Z,42.20
2023-05-16T02:18:07.309Z,42.17
2023-05-16T02:19:10.312Z,42.16
2023-05-16T02:20:15.184Z,42.16
2023-05-16T02:21:18.222Z,42.16
2023-05-16T02:22:20.975Z,42.15
2023-05-16T02:23:23.680Z,42.14
2023-05-16T02:24:26.692Z,42.12
2023-05-16T02:25:31.181Z,42.09
2023-05-16T02:26:34.302Z,42.09
2023-05-16T02:27:37.167Z,42.07
2023-05-16T02:28:40.494Z,42.10
2023-05-16T02:29:44.037Z,42.07
2023-05-16T02:32:02.537Z,41.99
2023-05-16T02:33:05.112Z,42.05
2023-05-16T02:34:07.784Z,42.04
2023-05-16T02:35:11.989Z,42.05
2023-05-16T02:36:15.568Z,42.02
2023-05-16T02:37:18.319Z,42.01
2023-05-16T02:38:22.244Z,41.97
2023-05-16T02:39:24.874Z,41.94
2023-05-16T02:41:40.650Z,41.93
2023-05-16T02:42:44.416Z,41.93
2023-05-16T02:43:47.209Z,41.91
2023-05-16T02:45:03.707Z,41.91
2023-05-16T02:47:34.563Z,41.96
2023-05-16T02:48:37.456Z,41.87
2023-05-16T02:49:39.905Z,41.89
2023-05-16T02:50:43.667Z,41.87
2023-05-16T02:51:46.580Z,41.89
2023-05-16T02:52:49.340Z,41.90
2023-05-16T02:53:54.295Z,41.91
2023-05-16T02:55:09.907Z,41.91
2023-05-16T02:56:04.601Z,41.91
2023-05-16T02:57:07.650Z,41.87
2023-05-16T02:58:10.722Z,41.90
2023-05-16T02:59:15.648Z,41.87
2023-05-16T03:00:19.946Z,41.91
2023-05-16T03:01:22.875Z,41.92
2023-05-16T03:02:26.670Z,41.92
2023-05-16T03:03:30.693Z,41.93
2023-05-16T03:04:33.666Z,41.92
2023-05-16T03:05:36.971Z,41.96
2023-05-16T03:06:40.091Z,41.97
2023-05-16T03:07:44.325Z,41.97
2023-05-16T03:08:47.568Z,41.95
2023-05-16T03:09:52.257Z,41.90
2023-05-16T03:10:55.693Z,41.90
2023-05-16T03:11:59.072Z,41.89
2023-05-16T03:13:01.764Z,41.87
2023-05-16T03:14:05.510Z,41.87
2023-05-16T03:15:09.609Z,41.90
2023-05-16T03:16:12.419Z,41.88
2023-05-16T03:17:15.610Z,41.92
2023-05-16T03:18:18.686Z,41.99
2023-05-16T03:19:22.178Z,41.97
2023-05-16T03:20:25.951Z,41.98
2023-05-16T03:21:29.014Z,42.00
2023-05-16T03:22:31.600Z,41.98
2023-05-16T03:23:35.931Z,42.02
2023-05-16T03:24:39.814Z,41.99
2023-05-16T03:25:42.617Z,42.02
2023-05-16T03:26:45.808Z,42.01
2023-05-16T03:27:49.603Z,42.01
2023-05-16T03:28:55.580Z,41.98
2023-05-16T03:29:58.792Z,42.02
2023-05-16T03:31:01.670Z,42.02
2023-05-16T03:32:05.341Z,42.04
2023-05-16T03:33:08.638Z,42.01
2023-05-16T03:34:11.579Z,42.03
2023-05-16T03:35:14.390Z,42.02
2023-05-16T03:36:17.968Z,42.04
2023-05-16T03:37:21.659Z,42.04
2023-05-16T03:38:24.554Z,42.03
2023-05-16T03:39:27.170Z,42.05
2023-05-16T03:40:30.362Z,42.05
2023-05-16T03:41:32.997Z,42.04
2023-05-16T03:42:36.567Z,42.03
2023-05-16T03:43:39.433Z,42.00
2023-05-16T03:44:43.455Z,42.00
2023-05-16T03:45:46.299Z,41.97
2023-05-16T03:46:50.771Z,41.97
2023-05-16T03:47:53.417Z,41.97
2023-05-16T03:48:57.775Z,41.95
2023-05-16T03:50:01.446Z,41.95
2023-05-16T03:51:05.339Z,41.92
2023-05-16T03:52:08.284Z,41.95
2023-05-16T03:53:11.617Z,41.98
2023-05-16T03:54:15.022Z,41.98
2023-05-16T03:55:19.851Z,42.00
2023-05-16T03:56:23.107Z,41.96
2023-05-16T03:57:25.819Z,41.93
2023-05-16T03:58:28.466Z,41.87
2023-05-16T03:59:31.284Z,41.81
2023-05-16T04:00:36.249Z,41.79
2023-05-16T04:01:38.873Z,41.75
2023-05-16T04:03:53.885Z,41.59
2023-05-16T04:04:57.480Z,41.57
2023-05-16T04:06:00.255Z,41.57
2023-05-16T04:07:04.892Z,41.54
2023-05-16T04:08:07.503Z,41.56
2023-05-16T04:09:10.937Z,41.52
2023-05-16T04:10:15.597Z,41.52
2023-05-16T04:11:18.682Z,41.51
2023-05-16T04:12:22.469Z,41.50
2023-05-16T04:13:25.857Z,41.51
2023-05-16T04:14:29.684Z,41.51
2023-05-16T04:15:32.287Z,41.50
2023-05-16T04:16:36.095Z,41.48
2023-05-16T04:17:39.766Z,41.47
2023-05-16T04:18:42.660Z,41.45
2023-05-16T04:19:46.380Z,41.42
2023-05-16T04:20:49.751Z,41.36
2023-05-16T04:21:52.788Z,41.37
2023-05-16T04:22:55.888Z,41.34
2023-05-16T04:23:59.791Z,41.30
2023-05-16T04:25:02.587Z,41.26
2023-05-16T04:26:06.332Z,41.23
2023-05-16T04:27:09.322Z,41.20
2023-05-16T04:28:12.073Z,41.14
2023-05-16T04:29:14.495Z,41.11
2023-05-16T04:30:19.040Z,41.05
2023-05-16T04:31:22.603Z,41.01
2023-05-16T04:32:25.469Z,40.96
2023-05-16T04:33:28.230Z,40.94
2023-05-16T04:34:31.078Z,40.90
2023-05-16T04:35:34.762Z,40.84
2023-05-16T04:36:38.558Z,40.85
2023-05-16T04:37:42.094Z,40.84
2023-05-16T04:38:49.119Z,40.79
2023-05-16T04:41:05.145Z,40.71
2023-05-16T04:42:07.958Z,40.65
2023-05-16T04:43:10.493Z,40.58
2023-05-16T04:44:12.968Z,40.58
2023-05-16T04:45:16.730Z,40.59
2023-05-16T04:46:20.363Z,40.52
2023-05-16T04:47:23.003Z,40.56
2023-05-16T04:48:26.130Z,40.59
2023-05-16T04:49:28.978Z,40.59
2023-05-16T04:50:31.622Z,40.64
2023-05-16T04:51:34.356Z,40.58
2023-05-16T04:53:49.872Z,40.53
2023-05-16T04:54:53.306Z,40.53
2023-05-16T04:55:57.259Z,40.52
2023-05-16T04:57:01.319Z,40.53
2023-05-16T04:58:04.031Z,40.54
2023-05-16T04:59:06.639Z,40.53
2023-05-16T05:00:11.418Z,40.55
2023-05-16T05:01:14.983Z,40.55
2023-05-16T05:02:18.487Z,40.56
2023-05-16T05:03:22.338Z,40.59
2023-05-16T05:04:25.394Z,40.53
2023-05-16T05:05:28.494Z,40.53
2023-05-16T05:06:31.754Z,40.49
2023-05-16T05:07:34.965Z,40.46
2023-05-16T05:08:38.296Z,40.46
2023-05-16T05:09:42.423Z,40.43
2023-05-16T05:10:45.730Z,40.43
2023-05-16T05:11:48.309Z,40.41
2023-05-16T05:12:50.925Z,40.46
2023-05-16T05:13:54.390Z,40.49
2023-05-16T05:14:57.114Z,40.54
2023-05-16T05:16:02.397Z,40.54
2023-05-16T05:17:06.406Z,40.61
2023-05-16T05:19:21.140Z,40.71
2023-05-16T05:20:24.031Z,40.75
2023-05-16T05:21:26.498Z,40.75
2023-05-16T05:22:30.641Z,40.79
2023-05-16T05:23:34.289Z,40.79
2023-05-16T05:24:36.910Z,40.84
2023-05-16T05:25:41.377Z,40.91
2023-05-16T05:26:44.477Z,40.97
2023-05-16T05:27:47.510Z,40.98
2023-05-16T05:29:53.101Z,41.08
2023-05-16T05:30:55.877Z,41.13
2023-05-16T05:31:59.743Z,41.24
2023-05-16T05:33:02.857Z,41.24
2023-05-16T05:34:05.935Z,41.31
2023-05-16T05:35:09.093Z,41.37
2023-05-16T05:36:11.754Z,41.35
2023-05-16T05:37:16.481Z,41.36
2023-05-16T05:38:19.738Z,41.36
2023-05-16T05:39:24.660Z,41.49
2023-05-16T05:40:28.729Z,41.36
2023-05-16T05:41:32.764Z,41.37
2023-05-16T05:42:36.776Z,41.40
2023-05-16T05:43:39.392Z,41.40
2023-05-16T05:44:41.965Z,41.30
2023-05-16T05:45:45.157Z,41.34
2023-05-16T05:46:47.746Z,41.33
2023-05-16T05:47:51.845Z,41.33
2023-05-16T05:48:55.553Z,41.33
2023-05-16T05:49:58.806Z,41.37
2023-05-16T05:51:01.787Z,41.40
2023-05-16T05:52:04.687Z,41.40
2023-05-16T05:53:08.231Z,41.40
2023-05-16T05:54:12.160Z,41.41
2023-05-16T05:55:15.452Z,41.40
2023-05-16T05:56:18.865Z,41.38
2023-05-16T05:57:21.804Z,41.37
2023-05-16T05:58:24.655Z,41.35
2023-05-16T05:59:27.287Z,41.34
2023-05-16T06:00:29.942Z,41.37
2023-05-16T06:01:32.903Z,41.38
2023-05-16T06:02:49.867Z,41.50
2023-05-16T06:03:52.536Z,41.51
2023-05-16T06:04:56.284Z,41.54
2023-05-16T06:05:59.551Z,41.55
2023-05-16T06:07:03.592Z,41.62
2023-05-16T06:08:06.861Z,41.61
2023-05-16T06:09:09.374Z,41.59
2023-05-16T06:10:15.261Z,41.69
2023-05-16T06:12:29.953Z,41.64
2023-05-16T06:13:32.696Z,41.49
2023-05-16T06:14:35.896Z,41.27
2023-05-16T06:15:38.393Z,41.36
2023-05-16T06:16:41.231Z,41.22
2023-05-16T06:17:44.062Z,41.07
2023-05-16T06:18:48.254Z,40.68
2023-05-16T06:19:51.001Z,40.59
2023-05-16T06:20:55.013Z,40.64
2023-05-16T06:21:58.254Z,40.55
2023-05-16T06:23:01.089Z,40.43
2023-05-16T06:24:05.004Z,40.34
2023-05-16T06:25:08.405Z,40.30
2023-05-16T06:26:11.912Z,40.27
2023-05-16T06:27:15.442Z,40.21
2023-05-16T06:28:19.156Z,40.10
2023-05-16T06:29:21.834Z,40.04
2023-05-16T06:30:25.030Z,39.98
2023-05-16T06:31:28.061Z,39.93
2023-05-16T06:32:33.198Z,39.88
2023-05-16T06:33:36.331Z,39.81
2023-05-16T06:34:39.128Z,39.68
2023-05-16T06:35:43.526Z,39.08
2023-05-16T06:36:46.428Z,39.31
2023-05-16T06:37:49.650Z,39.47
2023-05-16T06:38:52.335Z,39.21
2023-05-16T06:39:56.375Z,39.33
2023-05-16T06:40:59.279Z,39.36
2023-05-16T06:42:03.083Z,39.32
2023-05-16T06:43:07.897Z,39.34
2023-05-16T06:44:12.063Z,38.85
2023-05-16T06:45:15.698Z,39.21
2023-05-16T06:46:19.401Z,39.26
2023-05-16T06:47:23.289Z,39.08
2023-05-16T06:48:26.852Z,39.18
2023-05-16T06:49:30.712Z,39.07
2023-05-16T06:50:35.989Z,38.87
2023-05-16T06:51:41.952Z,38.74
2023-05-16T06:52:44.980Z,38.86
2023-05-16T06:53:48.427Z,38.74
2023-05-16T06:54:52.979Z,38.58
2023-05-16T06:55:56.206Z,39.39
2023-05-16T06:56:59.448Z,39.11
2023-05-16T06:58:03.006Z,39.29
2023-05-16T06:59:06.281Z,39.17
2023-05-16T07:00:10.370Z,39.23
2023-05-16T07:01:14.260Z,39.29
2023-05-16T07:02:17.087Z,39.31
2023-05-16T07:03:20.387Z,39.34
2023-05-16T07:04:23.936Z,39.31
2023-05-16T07:05:27.597Z,39.36
2023-05-16T07:06:30.730Z,39.28
2023-05-16T07:07:33.538Z,39.34
2023-05-16T07:08:37.094Z,39.31
2023-05-16T07:09:40.104Z,39.30
2023-05-16T07:10:42.844Z,39.27
2023-05-16T07:11:46.107Z,39.07
2023-05-16T07:12:48.844Z,38.65
2023-05-16T07:13:52.247Z,38.69
2023-05-16T07:14:55.363Z,38.85
2023-05-16T07:15:59.124Z,38.75
2023-05-16T07:17:02.705Z,38.54
2023-05-16T07:18:05.820Z,38.30
2023-05-16T07:19:08.713Z,38.35
2023-05-16T07:20:14.082Z,38.69
2023-05-16T07:21:17.553Z,38.65
2023-05-16T07:22:23.529Z,38.64
2023-05-16T07:23:26.694Z,38.20
2023-05-16T07:24:30.508Z,38.02
2023-05-16T07:25:33.127Z,38.17
2023-05-16T07:26:36.710Z,37.61
2023-05-16T07:27:44.357Z,38.18
2023-05-16T07:28:49.153Z,37.85
2023-05-16T07:29:51.862Z,38.18
2023-05-16T07:30:54.797Z,37.85
2023-05-16T07:31:58.277Z,37.53
2023-05-16T07:33:01.784Z,37.73
2023-05-16T07:34:05.941Z,37.37
2023-05-16T07:35:10.453Z,37.37
2023-05-16T07:36:17.301Z,37.11
2023-05-16T07:37:20.616Z,37.60
2023-05-16T07:38:23.242Z,37.86
2023-05-16T07:39:26.134Z,37.51
2023-05-16T07:40:29.863Z,37.35
2023-05-16T07:41:32.653Z,37.75
2023-05-16T07:42:35.488Z,37.95
2023-05-16T07:43:38.049Z,37.70
2023-05-16T07:44:41.289Z,37.58
2023-05-16T07:45:44.040Z,37.80
2023-05-16T07:46:48.431Z,37.83
2023-05-16T07:47:52.739Z,37.84
2023-05-16T07:48:56.981Z,37.84
2023-05-16T07:50:00.486Z,37.57
2023-05-16T07:51:03.430Z,37.79
2023-05-16T07:52:07.598Z,37.86
2023-05-16T07:53:10.857Z,37.87
2023-05-16T07:54:15.355Z,37.93
2023-05-16T07:55:18.076Z,37.89
2023-05-16T07:56:21.708Z,37.77
2023-05-16T07:57:39.082Z,37.40
2023-05-16T07:58:42.565Z,37.51
2023-05-16T07:59:49.013Z,37.05
2023-05-16T08:00:52.772Z,37.20
2023-05-16T08:01:56.152Z,37.75
2023-05-16T08:02:59.787Z,38.85
2023-05-16T08:04:03.956Z,38.79
2023-05-16T08:05:07.999Z,39.73
2023-05-16T08:06:12.071Z,40.04
2023-05-16T08:07:15.083Z,39.23
2023-05-16T08:08:17.931Z,39.23
2023-05-16T08:09:21.280Z,39.24
2023-05-16T08:10:25.691Z,39.22
2023-05-16T08:11:28.905Z,39.05
2023-05-16T08:12:32.553Z,38.82
2023-05-16T08:13:36.300Z,38.71
2023-05-16T08:14:39.567Z,38.52
2023-05-16T08:15:42.725Z,38.41
2023-05-16T08:16:46.208Z,38.17
2023-05-16T08:17:51.406Z,38.06
2023-05-16T08:18:54.729Z,37.88
2023-05-16T08:19:59.177Z,37.79
2023-05-16T08:21:02.447Z,37.72
2023-05-16T08:22:08.226Z,37.60
2023-05-16T08:23:11.404Z,37.62
2023-05-16T08:24:15.487Z,37.66
2023-05-16T08:25:20.296Z,37.45
2023-05-16T08:26:24.414Z,37.55
2023-05-16T08:27:28.917Z,37.92
2023-05-16T08:28:32.859Z,37.71
2023-05-16T08:29:35.860Z,37.82
2023-05-16T08:30:41.131Z,37.40
2023-05-16T08:31:44.251Z,37.40
2023-05-16T08:32:47.174Z,37.41
2023-05-16T08:33:49.923Z,37.32
2023-05-16T08:34:52.648Z,37.19
2023-05-16T08:35:56.519Z,37.26
2023-05-16T08:36:59.975Z,37.56
2023-05-16T08:38:02.964Z,37.24
2023-05-16T08:39:06.959Z,37.13
2023-05-16T08:40:11.426Z,37.24
2023-05-16T08:41:15.028Z,36.96
2023-05-16T08:42:20.558Z,37.05
2023-05-16T08:43:23.401Z,37.24
2023-05-16T08:44:28.180Z,36.91
2023-05-16T08:45:31.209Z,36.76
2023-05-16T08:46:36.965Z,36.79
2023-05-16T08:47:41.639Z,36.71
2023-05-16T08:48:46.110Z,36.61
2023-05-16T08:49:49.729Z,36.72
2023-05-16T08:50:53.720Z,36.62
2023-05-16T08:51:58.278Z,36.72
2023-05-16T08:53:06.534Z,36.49
2023-05-16T08:54:12.754Z,36.31
2023-05-16T08:55:15.637Z,36.42
2023-05-16T08:56:19.262Z,36.57
2023-05-16T08:57:22.642Z,36.86
2023-05-16T08:58:25.619Z,36.50
2023-05-16T08:59:28.585Z,37.40
2023-05-16T09:00:31.651Z,36.56
2023-05-16T09:01:34.826Z,37.12
2023-05-16T09:02:42.438Z,37.33
2023-05-16T09:03:45.375Z,37.18
2023-05-16T09:04:48.890Z,37.33
2023-05-16T09:07:23.397Z,37.36
2023-05-16T09:08:26.295Z,37.16
2023-05-16T09:09:30.224Z,37.26
2023-05-16T09:10:33.467Z,37.18
2023-05-16T09:11:37.158Z,37.19
2023-05-16T09:12:41.676Z,37.04
2023-05-16T09:13:45.718Z,37.20
2023-05-16T09:14:49.637Z,37.13
2023-05-16T09:17:40.412Z,37.32
2023-05-16T09:18:46.127Z,37.34
2023-05-16T09:19:56.605Z,37.28
2023-05-16T09:21:00.822Z,37.23
2023-05-16T09:22:04.009Z,37.11
2023-05-16T09:23:06.748Z,36.99
2023-05-16T09:24:09.986Z,37.45
2023-05-16T09:26:22.739Z,36.87
2023-05-16T09:27:26.966Z,37.13
2023-05-16T09:28:30.086Z,37.05
2023-05-16T09:29:36.984Z,37.01
2023-05-16T09:30:41.622Z,36.79
2023-05-16T09:31:44.918Z,36.68
2023-05-16T09:32:47.710Z,37.04
2023-05-16T09:33:51.118Z,37.27
2023-05-16T09:34:56.472Z,37.32
2023-05-16T09:36:01.186Z,37.46
2023-05-16T09:37:04.381Z,37.57
2023-05-16T09:38:15.976Z,37.07
2023-05-16T09:39:20.476Z,37.07
2023-05-16T09:40:24.367Z,37.29
2023-05-16T09:41:27.151Z,37.33
2023-05-16T09:42:31.002Z,37.10
2023-05-16T09:43:41.968Z,37.19
2023-05-16T09:44:52.204Z,36.83
2023-05-16T09:45:56.198Z,37.13
2023-05-16T09:47:00.015Z,37.17
2023-05-16T09:49:25.676Z,37.23
2023-05-16T09:50:28.461Z,36.70
2023-05-16T09:51:31.659Z,36.58
2023-05-16T09:52:34.688Z,36.55
2023-05-16T09:53:37.959Z,36.60
2023-05-16T09:54:41.068Z,36.71
2023-05-16T09:55:44.760Z,36.53
2023-05-16T09:56:51.018Z,36.55
2023-05-16T09:57:53.733Z,36.50
2023-05-16T09:58:56.709Z,36.71
2023-05-16T10:00:01.862Z,36.44
2023-05-16T10:01:07.330Z,36.29
2023-05-16T10:02:10.316Z,36.27
2023-05-16T10:03:13.827Z,36.36
2023-05-16T10:04:16.823Z,36.10
2023-05-16T10:05:20.029Z,36.06
2023-05-16T10:06:22.951Z,35.96
2023-05-16T10:07:25.889Z,36.20
2023-05-16T10:08:29.596Z,36.02
2023-05-16T10:09:32.697Z,35.91
2023-05-16T10:10:36.975Z,35.87
2023-05-16T10:11:41.463Z,35.91
2023-05-16T10:12:44.574Z,35.93
2023-05-16T10:13:49.096Z,35.84
2023-05-16T10:14:51.903Z,35.77
2023-05-16T10:15:59.242Z,35.94
2023-05-16T10:17:03.445Z,35.57
2023-05-16T10:18:10.189Z,35.53
2023-05-16T10:19:13.183Z,35.40
2023-05-16T10:20:18.433Z,35.56
2023-05-16T10:21:23.136Z,35.46
2023-05-16T10:22:26.808Z,35.45
2023-05-16T10:23:30.952Z,35.17
2023-05-16T10:24:52.705Z,35.25
2023-05-16T10:25:55.464Z,35.13
2023-05-16T10:26:58.902Z,35.04
2023-05-16T10:28:03.654Z,35.14
2023-05-16T10:29:08.263Z,35.13
2023-05-16T10:30:11.749Z,35.06
2023-05-16T10:31:15.788Z,35.02
2023-05-16T10:32:21.217Z,35.26
2023-05-16T10:33:25.560Z,35.28
2023-05-16T10:34:29.021Z,35.07
2023-05-16T10:35:32.366Z,35.01
2023-05-16T10:36:35.718Z,35.06
2023-05-16T10:37:38.881Z,34.83
2023-05-16T10:38:42.168Z,34.83
2023-05-16T10:39:46.318Z,34.90
2023-05-16T10:40:50.395Z,34.87
2023-05-16T10:41:53.759Z,35.27
2023-05-16T10:42:57.775Z,35.30
2023-05-16T10:45:20.908Z,36.56
2023-05-16T10:46:24.089Z,36.22
2023-05-16T10:47:26.988Z,36.11
2023-05-16T10:49:42.675Z,36.78
2023-05-16T10:50:45.819Z,37.03
2023-05-16T10:53:40.366Z,37.15
2023-05-16T10:54:46.861Z,36.95
2023-05-16T10:56:03.867Z,36.64
2023-05-16T10:57:11.089Z,36.60
2023-05-16T10:58:24.603Z,36.90
2023-05-16T10:59:41.362Z,37.19
2023-05-16T11:00:45.309Z,37.04
2023-05-16T11:01:53.640Z,37.15
2023-05-16T11:04:12.695Z,36.86
2023-05-16T11:05:18.507Z,36.69
2023-05-16T11:06:24.742Z,37.36
2023-05-16T11:07:40.712Z,37.22
2023-05-16T11:09:13.185Z,37.31
2023-05-16T11:10:16.710Z,37.07
2023-05-16T11:11:40.074Z,37.23
2023-05-16T11:12:45.494Z,37.27
2023-05-16T11:13:56.061Z,37.12
2023-05-16T11:15:00.357Z,37.11
2023-05-16T11:16:30.019Z,37.20
2023-05-16T11:17:39.223Z,37.39
2023-05-16T11:18:45.961Z,37.76
2023-05-16T11:19:50.486Z,37.80
2023-05-16T11:22:22.667Z,38.24
2023-05-16T11:23:25.732Z,37.91
2023-05-16T11:25:45.450Z,38.11
2023-05-16T11:26:48.263Z,37.50
2023-05-16T11:27:52.535Z,37.35
2023-05-16T11:28:56.986Z,37.70
2023-05-16T11:30:04.271Z,38.09
2023-05-16T11:31:08.078Z,37.92
2023-05-16T11:32:12.207Z,37.75
2023-05-16T11:33:16.243Z,37.80
2023-05-16T11:34:20.139Z,37.97
2023-05-16T11:35:25.062Z,38.02
2023-05-16T11:36:30.242Z,38.13
2023-05-16T11:37:34.194Z,38.19
2023-05-16T11:38:37.244Z,37.91
2023-05-16T11:39:40.349Z,37.69
2023-05-16T11:40:44.025Z,37.84
2023-05-16T11:41:48.802Z,37.89
2023-05-16T11:42:52.449Z,38.06
2023-05-16T11:44:01.025Z,38.08
2023-05-16T11:45:07.853Z,37.74
2023-05-16T11:46:13.331Z,37.63
2023-05-16T11:48:36.629Z,37.91
2023-05-16T11:49:44.380Z,37.67
2023-05-16T11:52:03.708Z,38.09
2023-05-16T11:58:19.432Z,38.32
2023-05-16T11:59:22.126Z,38.34
2023-05-16T12:00:29.210Z,38.34
2023-05-16T12:01:35.518Z,38.40
2023-05-16T12:02:42.149Z,38.24
2023-05-16T12:03:56.096Z,38.13
2023-05-16T12:05:00.670Z,38.34
2023-05-16T12:06:04.965Z,38.38
2023-05-16T12:07:08.177Z,38.07
2023-05-16T12:08:16.182Z,38.07
2023-05-16T12:09:19.449Z,38.16
2023-05-16T12:10:25.453Z,38.16
2023-05-16T12:11:30.908Z,38.05
2023-05-16T12:12:36.717Z,38.19
2023-05-16T12:13:40.661Z,38.28
2023-05-16T12:16:17.007Z,37.60
2023-05-16T12:17:21.603Z,38.06
2023-05-16T12:18:26.011Z,37.62
2023-05-16T12:19:30.170Z,37.78
2023-05-16T12:20:33.044Z,37.86
2023-05-16T12:21:36.926Z,38.02
2023-05-16T12:22:40.726Z,37.92
2023-05-16T12:23:45.675Z,38.14
2023-05-16T12:24:48.506Z,37.84
2023-05-16T12:25:54.145Z,37.81
2023-05-16T12:26:57.579Z,37.79
2023-05-16T12:28:01.550Z,37.96
2023-05-16T12:29:05.146Z,38.09
2023-05-16T12:30:09.714Z,37.68
2023-05-16T12:31:31.198Z,37.87
2023-05-16T12:32:25.237Z,37.61
2023-05-16T12:33:29.163Z,37.96
2023-05-16T12:34:33.158Z,38.14
2023-05-16T12:35:41.459Z,38.05
2023-05-16T12:36:45.309Z,37.99
2023-05-16T12:37:50.057Z,37.78
2023-05-16T12:38:53.097Z,37.91
2023-05-16T12:41:23.541Z,37.66
2023-05-16T12:42:29.422Z,37.70
2023-05-16T12:43:32.061Z,37.76
2023-05-16T12:44:35.226Z,37.57
2023-05-16T12:45:39.002Z,37.88
2023-05-16T12:46:47.214Z,37.99
2023-05-16T12:47:50.494Z,38.13
2023-05-16T12:48:57.144Z,38.17
2023-05-16T12:50:01.313Z,38.14
2023-05-16T12:52:31.804Z,38.30
2023-05-16T12:54:48.978Z,38.29
2023-05-16T12:55:52.104Z,38.34
2023-05-16T12:56:56.228Z,38.38
2023-05-16T12:59:14.240Z,38.45
2023-05-16T13:00:18.542Z,38.31
2023-05-16T13:01:22.486Z,38.42
2023-05-16T13:02:25.803Z,37.70
2023-05-16T13:03:29.906Z,38.26
2023-05-16T13:04:32.959Z,38.26
2023-05-16T13:05:36.187Z,38.33
2023-05-16T13:06:55.801Z,38.42
2023-05-16T13:07:44.889Z,38.40
2023-05-16T13:08:47.969Z,38.48
2023-05-16T13:09:50.651Z,38.53
2023-05-16T13:10:53.513Z,38.54
2023-05-16T13:11:57.885Z,38.59
2023-05-16T13:13:02.033Z,38.61
2023-05-16T13:14:05.501Z,38.59
2023-05-16T13:15:12.011Z,38.63
2023-05-16T13:16:16.061Z,38.65
2023-05-16T13:17:20.145Z,38.60
2023-05-16T13:18:23.927Z,38.58
2023-05-16T13:20:39.513Z,38.54
2023-05-16T13:21:42.697Z,38.72
2023-05-16T13:22:46.853Z,38.82
2023-05-16T13:23:49.475Z,38.79
2023-05-16T13:24:53.496Z,38.83
2023-05-16T13:25:56.264Z,38.83
2023-05-16T13:27:00.534Z,38.86
2023-05-16T13:28:04.123Z,38.85
2023-05-16T13:29:12.062Z,38.87
2023-05-16T13:30:15.596Z,38.75
2023-05-16T13:31:19.004Z,38.84
2023-05-16T13:32:22.243Z,38.79
2023-05-16T13:33:26.777Z,38.65
2023-05-16T13:34:30.068Z,38.74
2023-05-16T13:35:33.420Z,38.74
2023-05-16T13:36:52.245Z,38.78
2023-05-16T13:37:41.568Z,38.84
2023-05-16T13:38:44.595Z,38.76
2023-05-16T13:39:48.349Z,38.69
2023-05-16T13:40:52.639Z,38.77
2023-05-16T13:41:55.448Z,38.54
2023-05-16T13:43:00.437Z,38.47
2023-05-16T13:44:03.782Z,38.77
2023-05-16T13:45:07.527Z,38.90
2023-05-16T13:46:12.461Z,38.96
2023-05-16T13:47:16.535Z,39.02
2023-05-16T13:48:19.479Z,39.09
2023-05-16T13:50:35.961Z,39.33
2023-05-16T13:51:42.929Z,39.42
2023-05-16T13:52:47.464Z,39.47
2023-05-16T13:53:50.290Z,39.54
2023-05-16T13:54:54.849Z,39.55
2023-05-16T13:55:58.783Z,39.65
2023-05-16T13:57:05.038Z,39.66
2023-05-16T13:58:07.800Z,39.49
2023-05-16T13:59:15.247Z,39.54
2023-05-16T14:00:42.513Z,39.63
2023-05-16T14:01:22.709Z,39.64
2023-05-16T14:02:25.735Z,39.67
2023-05-16T14:03:30.178Z,39.75
2023-05-16T14:04:32.861Z,39.81
2023-05-16T14:05:36.351Z,39.85
2023-05-16T14:06:39.976Z,39.91
2023-05-16T14:07:44.723Z,39.98
2023-05-16T14:08:48.470Z,39.99
2023-05-16T14:09:53.371Z,40.03
2023-05-16T14:10:56.956Z,40.07
2023-05-16T14:11:59.815Z,40.07
2023-05-16T14:13:02.974Z,40.08
2023-05-16T14:14:05.917Z,40.10
2023-05-16T14:15:10.086Z,40.13
2023-05-16T14:16:14.004Z,40.14
2023-05-16T14:17:17.194Z,40.10
2023-05-16T14:18:19.763Z,40.13
2023-05-16T14:19:22.960Z,40.13
2023-05-16T14:20:26.598Z,40.10
2023-05-16T14:21:29.839Z,40.15
2023-05-16T14:22:33.133Z,40.21
2023-05-16T14:23:36.073Z,40.20
2023-05-16T14:24:38.849Z,40.21
2023-05-16T14:25:43.526Z,40.23
2023-05-16T14:26:49.338Z,40.28
2023-05-16T14:27:56.052Z,40.30
2023-05-16T14:28:59.650Z,40.30
2023-05-16T14:31:16.181Z,40.42
2023-05-16T14:32:20.000Z,40.40
2023-05-16T14:33:23.476Z,40.43
2023-05-16T14:34:26.988Z,40.43
2023-05-16T14:35:31.431Z,40.45
2023-05-16T14:36:34.604Z,40.43
2023-05-16T14:38:48.980Z,40.46
2023-05-16T14:39:52.455Z,40.45
2023-05-16T14:40:55.744Z,40.48
2023-05-16T14:41:59.303Z,40.48